sensor_id;sensor_type;location;lat;lon;timestamp;P1;durP1;ratioP1;P2;durP2;ratioP2
20287;SDS011;10303;51.960;8.372;2022-09-21T00:01:17;2.07;;;0.97;;
20287;SDS011;10303;51.960;8.372;2022-09-21T00:03:57;1.30;;;1.20;;
20287;SDS011;10303;51.960;8.372;2022-09-21T00:06:30;1.10;;;0.67;;
20287;SDS011;10303;51.960;8.372;2022-09-21T00:09:02;0.80;;;0.80;;
20287;SDS011;10303;51.960;8.372;2022-09-21T00:11:30;0.93;;;0.80;;
20287;SDS011;10303;51.960;8.372;2022-09-21T00:14:02;1.00;;;0.90;;
20287;SDS011;10303;51.960;8.372;2022-09-21T00:16:34;0.93;;;0.90;;
20287;SDS011;10303;51.960;8.372;2022-09-21T00:19:01;1.20;;;1.10;;
20287;SDS011;10303;51.960;8.372;2022-09-21T00:21:33;1.20;;;0.63;;
20287;SDS011;10303;51.960;8.372;2022-09-21T00:24:08;1.20;;;1.10;;
20287;SDS011;10303;51.960;8.372;2022-09-21T00:26:34;1.07;;;1.00;;
20287;SDS011;10303;51.960;8.372;2022-09-21T00:29:30;1.17;;;1.07;;
20287;SDS011;10303;51.960;8.372;2022-09-21T00:32:12;0.70;;;0.70;;
20287;SDS011;10303;51.960;8.372;2022-09-21T00:39:47;0.70;;;0.70;;
20287;SDS011;10303;51.960;8.372;2022-09-21T00:51:00;0.90;;;0.90;;
20287;SDS011;10303;51.960;8.372;2022-09-21T00:56:05;0.67;;;0.67;;
20287;SDS011;10303;51.960;8.372;2022-09-21T01:04:13;0.83;;;0.83;;
20287;SDS011;10303;51.960;8.372;2022-09-21T01:36:39;0.60;;;0.60;;
20287;SDS011;10303;51.960;8.372;2022-09-21T01:39:12;0.80;;;0.80;;
20287;SDS011;10303;51.960;8.372;2022-09-21T01:41:42;1.37;;;0.90;;
20287;SDS011;10303;51.960;8.372;2022-09-21T01:44:18;0.70;;;0.70;;
20287;SDS011;10303;51.960;8.372;2022-09-21T01:46:56;1.00;;;0.80;;
20287;SDS011;10303;51.960;8.372;2022-09-21T01:51:06;0.90;;;0.90;;
20287;SDS011;10303;51.960;8.372;2022-09-21T02:45:36;0.70;;;0.60;;
20287;SDS011;10303;51.960;8.372;2022-09-21T02:49:06;0.43;;;0.43;;
20287;SDS011;10303;51.960;8.372;2022-09-21T02:52:36;0.60;;;0.60;;
20287;SDS011;10303;51.960;8.372;2022-09-21T02:56:04;0.80;;;0.80;;
20287;SDS011;10303;51.960;8.372;2022-09-21T02:58:42;0.67;;;0.67;;
20287;SDS011;10303;51.960;8.372;2022-09-21T03:01:18;1.47;;;0.67;;
20287;SDS011;10303;51.960;8.372;2022-09-21T03:03:52;1.40;;;1.00;;
20287;SDS011;10303;51.960;8.372;2022-09-21T03:06:19;0.87;;;0.87;;
20287;SDS011;10303;51.960;8.372;2022-09-21T03:08:47;1.10;;;0.90;;
20287;SDS011;10303;51.960;8.372;2022-09-21T03:11:17;1.13;;;0.90;;
20287;SDS011;10303;51.960;8.372;2022-09-21T03:13:44;0.73;;;0.70;;
20287;SDS011;10303;51.960;8.372;2022-09-21T03:16:11;0.70;;;0.70;;
20287;SDS011;10303;51.960;8.372;2022-09-21T03:18:38;0.90;;;0.77;;
20287;SDS011;10303;51.960;8.372;2022-09-21T03:21:11;0.77;;;0.77;;
20287;SDS011;10303;51.960;8.372;2022-09-21T03:23:38;1.37;;;0.90;;
20287;SDS011;10303;51.960;8.372;2022-09-21T03:26:05;1.00;;;0.80;;
20287;SDS011;10303;51.960;8.372;2022-09-21T03:28:31;2.10;;;0.70;;
20287;SDS011;10303;51.960;8.372;2022-09-21T03:30:57;0.70;;;0.63;;
20287;SDS011;10303;51.960;8.372;2022-09-21T03:33:23;0.63;;;0.60;;
20287;SDS011;10303;51.960;8.372;2022-09-21T03:35:50;0.80;;;0.80;;
20287;SDS011;10303;51.960;8.372;2022-09-21T03:38:19;0.60;;;0.60;;
20287;SDS011;10303;51.960;8.372;2022-09-21T03:40:46;0.60;;;0.60;;
20287;SDS011;10303;51.960;8.372;2022-09-21T03:43:13;0.80;;;0.80;;
20287;SDS011;10303;51.960;8.372;2022-09-21T03:45:41;0.83;;;0.60;;
20287;SDS011;10303;51.960;8.372;2022-09-21T03:48:09;0.77;;;0.67;;
20287;SDS011;10303;51.960;8.372;2022-09-21T03:50:36;0.63;;;0.63;;
20287;SDS011;10303;51.960;8.372;2022-09-21T03:53:03;0.77;;;0.77;;
20287;SDS011;10303;51.960;8.372;2022-09-21T03:55:29;1.07;;;0.70;;
20287;SDS011;10303;51.960;8.372;2022-09-21T03:57:55;0.70;;;0.70;;
20287;SDS011;10303;51.960;8.372;2022-09-21T04:00:21;0.60;;;0.60;;
20287;SDS011;10303;51.960;8.372;2022-09-21T04:02:47;0.67;;;0.67;;
20287;SDS011;10303;51.960;8.372;2022-09-21T04:05:14;0.53;;;0.50;;
20287;SDS011;10303;51.960;8.372;2022-09-21T04:07:42;0.70;;;0.70;;
20287;SDS011;10303;51.960;8.372;2022-09-21T04:10:13;0.50;;;0.50;;
20287;SDS011;10303;51.960;8.372;2022-09-21T04:12:45;0.70;;;0.70;;
20287;SDS011;10303;51.960;8.372;2022-09-21T04:15:13;0.90;;;0.77;;
20287;SDS011;10303;51.960;8.372;2022-09-21T04:17:46;0.70;;;0.70;;
20287;SDS011;10303;51.960;8.372;2022-09-21T04:20:16;0.87;;;0.70;;
20287;SDS011;10303;51.960;8.372;2022-09-21T04:22:42;0.60;;;0.60;;
20287;SDS011;10303;51.960;8.372;2022-09-21T04:25:09;0.60;;;0.60;;
20287;SDS011;10303;51.960;8.372;2022-09-21T04:27:37;0.67;;;0.67;;
20287;SDS011;10303;51.960;8.372;2022-09-21T04:30:04;0.70;;;0.63;;
20287;SDS011;10303;51.960;8.372;2022-09-21T04:32:31;3.07;;;0.80;;
20287;SDS011;10303;51.960;8.372;2022-09-21T04:34:57;0.60;;;0.60;;
20287;SDS011;10303;51.960;8.372;2022-09-21T04:37:22;0.60;;;0.60;;
20287;SDS011;10303;51.960;8.372;2022-09-21T04:39:48;0.80;;;0.80;;
20287;SDS011;10303;51.960;8.372;2022-09-21T04:42:14;0.60;;;0.60;;
20287;SDS011;10303;51.960;8.372;2022-09-21T04:44:41;1.07;;;0.50;;
20287;SDS011;10303;51.960;8.372;2022-09-21T04:47:07;1.00;;;0.60;;
20287;SDS011;10303;51.960;8.372;2022-09-21T04:49:33;0.70;;;0.70;;
20287;SDS011;10303;51.960;8.372;2022-09-21T04:51:59;0.70;;;0.70;;
20287;SDS011;10303;51.960;8.372;2022-09-21T04:54:28;0.70;;;0.70;;
20287;SDS011;10303;51.960;8.372;2022-09-21T04:56:54;1.10;;;1.00;;
20287;SDS011;10303;51.960;8.372;2022-09-21T04:59:20;0.70;;;0.70;;
20287;SDS011;10303;51.960;8.372;2022-09-21T05:01:47;0.60;;;0.50;;
20287;SDS011;10303;51.960;8.372;2022-09-21T05:04:14;0.50;;;0.40;;
20287;SDS011;10303;51.960;8.372;2022-09-21T05:06:41;0.80;;;0.80;;
20287;SDS011;10303;51.960;8.372;2022-09-21T05:09:07;0.70;;;0.60;;
20287;SDS011;10303;51.960;8.372;2022-09-21T05:11:52;0.77;;;0.77;;
20287;SDS011;10303;51.960;8.372;2022-09-21T05:14:18;0.70;;;0.60;;
20287;SDS011;10303;51.960;8.372;2022-09-21T05:16:44;0.70;;;0.70;;
20287;SDS011;10303;51.960;8.372;2022-09-21T05:19:14;0.90;;;0.80;;
20287;SDS011;10303;51.960;8.372;2022-09-21T05:21:41;1.10;;;0.80;;
20287;SDS011;10303;51.960;8.372;2022-09-21T05:24:07;0.77;;;0.77;;
20287;SDS011;10303;51.960;8.372;2022-09-21T05:26:33;1.50;;;0.60;;
20287;SDS011;10303;51.960;8.372;2022-09-21T05:28:59;1.23;;;1.00;;
20287;SDS011;10303;51.960;8.372;2022-09-21T05:31:30;0.87;;;0.80;;
20287;SDS011;10303;51.960;8.372;2022-09-21T05:34:21;1.00;;;0.87;;
20287;SDS011;10303;51.960;8.372;2022-09-21T05:37:28;0.90;;;0.80;;
20287;SDS011;10303;51.960;8.372;2022-09-21T05:40:13;1.10;;;0.90;;
20287;SDS011;10303;51.960;8.372;2022-09-21T05:42:40;1.30;;;1.10;;
20287;SDS011;10303;51.960;8.372;2022-09-21T05:45:06;1.10;;;1.03;;
20287;SDS011;10303;51.960;8.372;2022-09-21T05:47:39;1.33;;;1.00;;
20287;SDS011;10303;51.960;8.372;2022-09-21T05:51:24;1.10;;;1.00;;
20287;SDS011;10303;51.960;8.372;2022-09-21T06:00:06;1.90;;;0.90;;
20287;SDS011;10303;51.960;8.372;2022-09-21T06:05:53;0.80;;;0.80;;
20287;SDS011;10303;51.960;8.372;2022-09-21T06:08:20;2.40;;;1.10;;
20287;SDS011;10303;51.960;8.372;2022-09-21T06:10:46;1.30;;;1.10;;
20287;SDS011;10303;51.960;8.372;2022-09-21T06:13:12;1.40;;;1.30;;
20287;SDS011;10303;51.960;8.372;2022-09-21T06:15:39;1.63;;;1.17;;
20287;SDS011;10303;51.960;8.372;2022-09-21T06:18:06;1.70;;;1.37;;
20287;SDS011;10303;51.960;8.372;2022-09-21T06:20:33;1.07;;;0.97;;
20287;SDS011;10303;51.960;8.372;2022-09-21T06:23:03;1.53;;;1.07;;
20287;SDS011;10303;51.960;8.372;2022-09-21T06:25:32;2.70;;;1.90;;
20287;SDS011;10303;51.960;8.372;2022-09-21T06:28:06;3.83;;;1.50;;
20287;SDS011;10303;51.960;8.372;2022-09-21T06:30:37;1.10;;;1.00;;
20287;SDS011;10303;51.960;8.372;2022-09-21T06:33:06;1.60;;;1.40;;
20287;SDS011;10303;51.960;8.372;2022-09-21T06:35:33;1.20;;;1.10;;
20287;SDS011;10303;51.960;8.372;2022-09-21T06:38:01;2.07;;;1.10;;
20287;SDS011;10303;51.960;8.372;2022-09-21T06:40:31;1.53;;;1.00;;
20287;SDS011;10303;51.960;8.372;2022-09-21T06:43:01;1.23;;;1.13;;
20287;SDS011;10303;51.960;8.372;2022-09-21T06:45:29;1.53;;;1.07;;
20287;SDS011;10303;51.960;8.372;2022-09-21T06:47:55;1.97;;;1.40;;
20287;SDS011;10303;51.960;8.372;2022-09-21T06:50:23;1.63;;;1.40;;
20287;SDS011;10303;51.960;8.372;2022-09-21T06:52:49;4.00;;;1.50;;
20287;SDS011;10303;51.960;8.372;2022-09-21T06:55:16;1.87;;;1.63;;
20287;SDS011;10303;51.960;8.372;2022-09-21T06:57:42;2.90;;;1.57;;
20287;SDS011;10303;51.960;8.372;2022-09-21T07:00:09;2.70;;;1.87;;
20287;SDS011;10303;51.960;8.372;2022-09-21T07:02:37;1.90;;;1.50;;
20287;SDS011;10303;51.960;8.372;2022-09-21T07:05:07;1.90;;;1.67;;
20287;SDS011;10303;51.960;8.372;2022-09-21T07:07:33;1.60;;;1.47;;
20287;SDS011;10303;51.960;8.372;2022-09-21T07:10:00;2.07;;;1.50;;
20287;SDS011;10303;51.960;8.372;2022-09-21T07:12:28;1.53;;;1.30;;
20287;SDS011;10303;51.960;8.372;2022-09-21T07:14:58;1.50;;;1.10;;
20287;SDS011;10303;51.960;8.372;2022-09-21T07:17:36;2.13;;;1.10;;
20287;SDS011;10303;51.960;8.372;2022-09-21T07:20:04;1.33;;;1.23;;
20287;SDS011;10303;51.960;8.372;2022-09-21T07:22:38;3.00;;;1.60;;
20287;SDS011;10303;51.960;8.372;2022-09-21T07:25:04;2.40;;;1.50;;
20287;SDS011;10303;51.960;8.372;2022-09-21T07:27:33;1.60;;;1.23;;
20287;SDS011;10303;51.960;8.372;2022-09-21T07:29:59;1.23;;;1.13;;
20287;SDS011;10303;51.960;8.372;2022-09-21T07:32:25;1.77;;;1.67;;
20287;SDS011;10303;51.960;8.372;2022-09-21T07:34:51;1.67;;;1.57;;
20287;SDS011;10303;51.960;8.372;2022-09-21T07:37:21;2.13;;;1.93;;
20287;SDS011;10303;51.960;8.372;2022-09-21T07:39:49;2.13;;;1.93;;
20287;SDS011;10303;51.960;8.372;2022-09-21T07:42:19;1.83;;;1.67;;
20287;SDS011;10303;51.960;8.372;2022-09-21T07:44:47;2.10;;;1.90;;
20287;SDS011;10303;51.960;8.372;2022-09-21T07:47:13;1.57;;;1.47;;
20287;SDS011;10303;51.960;8.372;2022-09-21T07:49:40;2.47;;;2.10;;
20287;SDS011;10303;51.960;8.372;2022-09-21T07:52:07;2.37;;;2.17;;
20287;SDS011;10303;51.960;8.372;2022-09-21T07:54:34;3.73;;;2.30;;
20287;SDS011;10303;51.960;8.372;2022-09-21T08:00:40;2.87;;;2.63;;
20287;SDS011;10303;51.960;8.372;2022-09-21T08:06:03;3.20;;;2.20;;
20287;SDS011;10303;51.960;8.372;2022-09-21T08:08:29;2.87;;;2.13;;
20287;SDS011;10303;51.960;8.372;2022-09-21T08:16:06;2.37;;;2.17;;
20287;SDS011;10303;51.960;8.372;2022-09-21T08:18:35;3.07;;;2.17;;
20287;SDS011;10303;51.960;8.372;2022-09-21T08:21:03;2.27;;;1.90;;
20287;SDS011;10303;51.960;8.372;2022-09-21T08:23:30;2.57;;;2.37;;
20287;SDS011;10303;51.960;8.372;2022-09-21T08:25:58;2.57;;;2.27;;
20287;SDS011;10303;51.960;8.372;2022-09-21T08:31:47;2.57;;;2.37;;
20287;SDS011;10303;51.960;8.372;2022-09-21T08:37:34;1.60;;;1.50;;
20287;SDS011;10303;51.960;8.372;2022-09-21T08:40:02;2.10;;;1.73;;
20287;SDS011;10303;51.960;8.372;2022-09-21T08:42:35;3.10;;;1.80;;
20287;SDS011;10303;51.960;8.372;2022-09-21T08:45:11;1.90;;;1.80;;
20287;SDS011;10303;51.960;8.372;2022-09-21T08:47:51;1.80;;;1.70;;
20287;SDS011;10303;51.960;8.372;2022-09-21T08:53:01;2.27;;;2.07;;
20287;SDS011;10303;51.960;8.372;2022-09-21T08:55:35;2.30;;;2.10;;
20287;SDS011;10303;51.960;8.372;2022-09-21T08:58:01;3.17;;;2.77;;
20287;SDS011;10303;51.960;8.372;2022-09-21T09:00:28;3.87;;;1.90;;
20287;SDS011;10303;51.960;8.372;2022-09-21T09:08:57;5.27;;;2.50;;
20287;SDS011;10303;51.960;8.372;2022-09-21T09:17:47;2.03;;;1.93;;
20287;SDS011;10303;51.960;8.372;2022-09-21T09:20:43;1.90;;;1.80;;
20287;SDS011;10303;51.960;8.372;2022-09-21T09:23:51;2.50;;;2.30;;
20287;SDS011;10303;51.960;8.372;2022-09-21T09:26:37;1.80;;;1.50;;
20287;SDS011;10303;51.960;8.372;2022-09-21T09:35:35;2.90;;;2.13;;
20287;SDS011;10303;51.960;8.372;2022-09-21T09:38:13;3.43;;;1.73;;
20287;SDS011;10303;51.960;8.372;2022-09-21T09:41:03;2.03;;;1.80;;
20287;SDS011;10303;51.960;8.372;2022-09-21T09:47:11;2.65;;;1.73;;
20287;SDS011;10303;51.960;8.372;2022-09-21T09:52:34;1.55;;;1.45;;
20287;SDS011;10303;51.960;8.372;2022-09-21T09:55:10;1.35;;;1.25;;
20287;SDS011;10303;51.960;8.372;2022-09-21T09:57:46;1.20;;;1.10;;
20287;SDS011;10303;51.960;8.372;2022-09-21T10:00:14;3.85;;;1.52;;
20287;SDS011;10303;51.960;8.372;2022-09-21T10:02:51;3.63;;;1.60;;
20287;SDS011;10303;51.960;8.372;2022-09-21T10:05:23;1.80;;;1.35;;
20287;SDS011;10303;51.960;8.372;2022-09-21T10:07:56;2.15;;;0.93;;
20287;SDS011;10303;51.960;8.372;2022-09-21T10:13:09;1.10;;;1.00;;
20287;SDS011;10303;51.960;8.372;2022-09-21T10:15:53;1.58;;;1.30;;
20287;SDS011;10303;51.960;8.372;2022-09-21T10:18:24;1.42;;;0.95;;
20287;SDS011;10303;51.960;8.372;2022-09-21T10:21:02;1.67;;;1.20;;
20287;SDS011;10303;51.960;8.372;2022-09-21T10:23:52;1.17;;;0.95;;
20287;SDS011;10303;51.960;8.372;2022-09-21T10:30:02;1.92;;;1.00;;
20287;SDS011;10303;51.960;8.372;2022-09-21T10:40:43;1.17;;;0.80;;
20287;SDS011;10303;51.960;8.372;2022-09-21T10:46:16;2.17;;;0.77;;
20287;SDS011;10303;51.960;8.372;2022-09-21T10:48:57;1.73;;;1.02;;
20287;SDS011;10303;51.960;8.372;2022-09-21T10:51:26;2.40;;;0.80;;
20287;SDS011;10303;51.960;8.372;2022-09-21T10:53:55;2.30;;;0.73;;
20287;SDS011;10303;51.960;8.372;2022-09-21T10:56:24;1.80;;;1.13;;
20287;SDS011;10303;51.960;8.372;2022-09-21T11:01:49;2.22;;;0.80;;
20287;SDS011;10303;51.960;8.372;2022-09-21T11:07:18;1.20;;;0.70;;
20287;SDS011;10303;51.960;8.372;2022-09-21T11:13:28;5.25;;;0.90;;
20287;SDS011;10303;51.960;8.372;2022-09-21T11:22:33;1.60;;;0.90;;
20287;SDS011;10303;51.960;8.372;2022-09-21T11:25:30;2.75;;;1.02;;
20287;SDS011;10303;51.960;8.372;2022-09-21T11:28:05;0.45;;;0.45;;
20287;SDS011;10303;51.960;8.372;2022-09-21T11:58:43;0.90;;;0.50;;
20287;SDS011;10303;51.960;8.372;2022-09-21T12:02:25;0.95;;;0.47;;
20287;SDS011;10303;51.960;8.372;2022-09-21T12:11:23;1.55;;;0.43;;
20287;SDS011;10303;51.960;8.372;2022-09-21T12:14:32;1.52;;;0.68;;
20287;SDS011;10303;51.960;8.372;2022-09-21T12:20:39;0.75;;;0.70;;
20287;SDS011;10303;51.960;8.372;2022-09-21T12:30:13;1.02;;;0.70;;
20287;SDS011;10303;51.960;8.372;2022-09-21T12:32:53;2.30;;;0.60;;
20287;SDS011;10303;51.960;8.372;2022-09-21T12:35:44;1.85;;;0.60;;
20287;SDS011;10303;51.960;8.372;2022-09-21T12:38:20;0.73;;;0.45;;
20287;SDS011;10303;51.960;8.372;2022-09-21T12:46:37;2.05;;;1.00;;
20287;SDS011;10303;51.960;8.372;2022-09-21T12:49:14;0.85;;;0.82;;
20287;SDS011;10303;51.960;8.372;2022-09-21T12:51:49;2.50;;;1.05;;
20287;SDS011;10303;51.960;8.372;2022-09-21T12:54:36;1.33;;;0.60;;
20287;SDS011;10303;51.960;8.372;2022-09-21T13:00:17;3.90;;;0.73;;
20287;SDS011;10303;51.960;8.372;2022-09-21T13:02:55;1.33;;;0.90;;
20287;SDS011;10303;51.960;8.372;2022-09-21T13:05:55;0.65;;;0.57;;
20287;SDS011;10303;51.960;8.372;2022-09-21T13:08:59;0.55;;;0.38;;
20287;SDS011;10303;51.960;8.372;2022-09-21T13:11:28;1.08;;;0.43;;
20287;SDS011;10303;51.960;8.372;2022-09-21T13:14:01;1.65;;;0.45;;
20287;SDS011;10303;51.960;8.372;2022-09-21T13:16:44;0.57;;;0.57;;
20287;SDS011;10303;51.960;8.372;2022-09-21T13:19:30;0.52;;;0.50;;
20287;SDS011;10303;51.960;8.372;2022-09-21T13:25:05;0.47;;;0.47;;
20287;SDS011;10303;51.960;8.372;2022-09-21T13:30:46;0.90;;;0.70;;
20287;SDS011;10303;51.960;8.372;2022-09-21T13:33:31;0.63;;;0.63;;
20287;SDS011;10303;51.960;8.372;2022-09-21T13:36:27;1.17;;;0.60;;
20287;SDS011;10303;51.960;8.372;2022-09-21T13:39:11;2.70;;;1.13;;
20287;SDS011;10303;51.960;8.372;2022-09-21T13:41:43;0.90;;;0.55;;
20287;SDS011;10303;51.960;8.372;2022-09-21T13:44:41;0.93;;;0.40;;
20287;SDS011;10303;51.960;8.372;2022-09-21T13:47:10;0.50;;;0.50;;
20287;SDS011;10303;51.960;8.372;2022-09-21T13:49:40;0.73;;;0.55;;
20287;SDS011;10303;51.960;8.372;2022-09-21T13:52:25;0.50;;;0.50;;
20287;SDS011;10303;51.960;8.372;2022-09-21T14:06:50;0.50;;;0.50;;
20287;SDS011;10303;51.960;8.372;2022-09-21T14:09:21;0.40;;;0.40;;
20287;SDS011;10303;51.960;8.372;2022-09-21T14:11:56;0.32;;;0.32;;
20287;SDS011;10303;51.960;8.372;2022-09-21T14:30:54;3.58;;;0.50;;
20287;SDS011;10303;51.960;8.372;2022-09-21T15:17:59;1.75;;;0.70;;
20287;SDS011;10303;51.960;8.372;2022-09-21T15:20:29;0.50;;;0.50;;
20287;SDS011;10303;51.960;8.372;2022-09-21T15:22:57;0.73;;;0.35;;
20287;SDS011;10303;51.960;8.372;2022-09-21T15:25:25;0.57;;;0.57;;
20287;SDS011;10303;51.960;8.372;2022-09-21T15:30:44;3.15;;;0.75;;
20287;SDS011;10303;51.960;8.372;2022-09-21T15:33:42;0.40;;;0.40;;
20287;SDS011;10303;51.960;8.372;2022-09-21T15:36:51;0.88;;;0.40;;
20287;SDS011;10303;51.960;8.372;2022-09-21T15:39:19;0.40;;;0.40;;
20287;SDS011;10303;51.960;8.372;2022-09-21T15:41:56;0.63;;;0.50;;
20287;SDS011;10303;51.960;8.372;2022-09-21T15:44:34;0.68;;;0.68;;
20287;SDS011;10303;51.960;8.372;2022-09-21T15:47:02;0.82;;;0.40;;
20287;SDS011;10303;51.960;8.372;2022-09-21T15:53:37;0.50;;;0.50;;
20287;SDS011;10303;51.960;8.372;2022-09-21T15:56:54;0.55;;;0.45;;
20287;SDS011;10303;51.960;8.372;2022-09-21T15:59:46;0.93;;;0.45;;
20287;SDS011;10303;51.960;8.372;2022-09-21T16:02:15;3.72;;;0.68;;
20287;SDS011;10303;51.960;8.372;2022-09-21T16:04:48;0.63;;;0.40;;
20287;SDS011;10303;51.960;8.372;2022-09-21T16:07:24;1.30;;;0.50;;
20287;SDS011;10303;51.960;8.372;2022-09-21T16:10:00;0.73;;;0.38;;
20287;SDS011;10303;51.960;8.372;2022-09-21T16:22:35;0.40;;;0.40;;
20287;SDS011;10303;51.960;8.372;2022-09-21T16:25:23;1.43;;;0.40;;
20287;SDS011;10303;51.960;8.372;2022-09-21T16:28:06;0.70;;;0.40;;
20287;SDS011;10303;51.960;8.372;2022-09-21T16:31:31;0.33;;;0.33;;
20287;SDS011;10303;51.960;8.372;2022-09-21T16:39:58;0.93;;;0.50;;
20287;SDS011;10303;51.960;8.372;2022-09-21T16:42:26;0.63;;;0.40;;
20287;SDS011;10303;51.960;8.372;2022-09-21T16:44:57;0.77;;;0.73;;
20287;SDS011;10303;51.960;8.372;2022-09-21T16:47:26;0.60;;;0.50;;
20287;SDS011;10303;51.960;8.372;2022-09-21T16:49:55;1.73;;;0.50;;
20287;SDS011;10303;51.960;8.372;2022-09-21T16:52:26;0.97;;;0.47;;
20287;SDS011;10303;51.960;8.372;2022-09-21T16:54:54;2.43;;;1.03;;
20287;SDS011;10303;51.960;8.372;2022-09-21T16:57:22;0.63;;;0.40;;
20287;SDS011;10303;51.960;8.372;2022-09-21T16:59:50;0.50;;;0.40;;
20287;SDS011;10303;51.960;8.372;2022-09-21T17:02:16;1.73;;;0.33;;
20287;SDS011;10303;51.960;8.372;2022-09-21T17:04:43;0.33;;;0.30;;
20287;SDS011;10303;51.960;8.372;2022-09-21T17:07:10;0.80;;;0.50;;
20287;SDS011;10303;51.960;8.372;2022-09-21T17:09:38;3.17;;;0.70;;
20287;SDS011;10303;51.960;8.372;2022-09-21T17:12:12;0.93;;;0.40;;
20287;SDS011;10303;51.960;8.372;2022-09-21T17:14:45;0.60;;;0.47;;
20287;SDS011;10303;51.960;8.372;2022-09-21T17:17:20;2.10;;;0.47;;
20287;SDS011;10303;51.960;8.372;2022-09-21T17:19:53;2.10;;;0.40;;
20287;SDS011;10303;51.960;8.372;2022-09-21T17:24:57;0.43;;;0.40;;
20287;SDS011;10303;51.960;8.372;2022-09-21T17:27:25;1.07;;;0.60;;
20287;SDS011;10303;51.960;8.372;2022-09-21T17:29:53;3.60;;;1.03;;
20287;SDS011;10303;51.960;8.372;2022-09-21T17:32:23;2.40;;;1.27;;
20287;SDS011;10303;51.960;8.372;2022-09-21T17:34:57;2.93;;;1.00;;
20287;SDS011;10303;51.960;8.372;2022-09-21T17:37:36;1.17;;;0.70;;
20287;SDS011;10303;51.960;8.372;2022-09-21T17:40:03;0.90;;;0.60;;
20287;SDS011;10303;51.960;8.372;2022-09-21T17:42:30;0.77;;;0.77;;
20287;SDS011;10303;51.960;8.372;2022-09-21T17:48:06;1.87;;;0.60;;
20287;SDS011;10303;51.960;8.372;2022-09-21T17:50:43;0.43;;;0.37;;
20287;SDS011;10303;51.960;8.372;2022-09-21T17:53:10;1.37;;;0.43;;
20287;SDS011;10303;51.960;8.372;2022-09-21T17:59:42;0.33;;;0.33;;
20287;SDS011;10303;51.960;8.372;2022-09-21T18:02:51;0.50;;;0.40;;
20287;SDS011;10303;51.960;8.372;2022-09-21T18:06:36;0.30;;;0.30;;
20287;SDS011;10303;51.960;8.372;2022-09-21T18:10:22;1.13;;;0.30;;
20287;SDS011;10303;51.960;8.372;2022-09-21T18:22:50;0.57;;;0.40;;
20287;SDS011;10303;51.960;8.372;2022-09-21T18:26:10;0.93;;;0.40;;
20287;SDS011;10303;51.960;8.372;2022-09-21T18:28:45;0.37;;;0.33;;
20287;SDS011;10303;51.960;8.372;2022-09-21T18:45:32;0.93;;;0.50;;
20287;SDS011;10303;51.960;8.372;2022-09-21T18:55:13;0.30;;;0.30;;
20287;SDS011;10303;51.960;8.372;2022-09-21T19:04:22;0.50;;;0.50;;
20287;SDS011;10303;51.960;8.372;2022-09-21T19:19:18;0.57;;;0.57;;
20287;SDS011;10303;51.960;8.372;2022-09-21T19:26:27;0.67;;;0.67;;
20287;SDS011;10303;51.960;8.372;2022-09-21T19:29:22;0.73;;;0.73;;
20287;SDS011;10303;51.960;8.372;2022-09-21T19:32:46;3.60;;;0.60;;
20287;SDS011;10303;51.960;8.372;2022-09-21T19:35:58;0.40;;;0.40;;
20287;SDS011;10303;51.960;8.372;2022-09-21T19:38:34;0.87;;;0.60;;
20287;SDS011;10303;51.960;8.372;2022-09-21T19:47:29;0.60;;;0.60;;
20287;SDS011;10303;51.960;8.372;2022-09-21T19:50:15;1.33;;;0.50;;
20287;SDS011;10303;51.960;8.372;2022-09-21T19:52:50;0.80;;;0.80;;
20287;SDS011;10303;51.960;8.372;2022-09-21T19:55:44;1.57;;;0.63;;
20287;SDS011;10303;51.960;8.372;2022-09-21T19:58:40;0.77;;;0.67;;
20287;SDS011;10303;51.960;8.372;2022-09-21T20:01:25;0.80;;;0.80;;
20287;SDS011;10303;51.960;8.372;2022-09-21T20:03:56;0.90;;;0.80;;
20287;SDS011;10303;51.960;8.372;2022-09-21T20:10:47;0.60;;;0.53;;
20287;SDS011;10303;51.960;8.372;2022-09-21T20:14:01;0.80;;;0.80;;
20287;SDS011;10303;51.960;8.372;2022-09-21T20:17:07;0.60;;;0.60;;
20287;SDS011;10303;51.960;8.372;2022-09-21T20:20:45;0.57;;;0.50;;
20287;SDS011;10303;51.960;8.372;2022-09-21T20:35:43;0.60;;;0.53;;
20287;SDS011;10303;51.960;8.372;2022-09-21T20:38:11;0.57;;;0.57;;
20287;SDS011;10303;51.960;8.372;2022-09-21T20:40:42;0.70;;;0.60;;
20287;SDS011;10303;51.960;8.372;2022-09-21T20:43:11;2.33;;;0.60;;
20287;SDS011;10303;51.960;8.372;2022-09-21T20:45:40;0.60;;;0.60;;
20287;SDS011;10303;51.960;8.372;2022-09-21T20:48:31;0.70;;;0.70;;
20287;SDS011;10303;51.960;8.372;2022-09-21T20:51:26;0.60;;;0.60;;
20287;SDS011;10303;51.960;8.372;2022-09-21T20:54:10;0.90;;;0.80;;
20287;SDS011;10303;51.960;8.372;2022-09-21T20:56:40;0.57;;;0.53;;
20287;SDS011;10303;51.960;8.372;2022-09-21T20:59:19;1.50;;;0.63;;
20287;SDS011;10303;51.960;8.372;2022-09-21T21:01:50;0.70;;;0.70;;
20287;SDS011;10303;51.960;8.372;2022-09-21T21:04:21;1.67;;;0.70;;
20287;SDS011;10303;51.960;8.372;2022-09-21T21:07:01;0.97;;;0.90;;
20287;SDS011;10303;51.960;8.372;2022-09-21T21:09:36;1.57;;;0.70;;
20287;SDS011;10303;51.960;8.372;2022-09-21T21:12:33;1.10;;;0.90;;
20287;SDS011;10303;51.960;8.372;2022-09-21T21:15:24;2.23;;;0.93;;
20287;SDS011;10303;51.960;8.372;2022-09-21T21:18:03;1.17;;;0.77;;
20287;SDS011;10303;51.960;8.372;2022-09-21T21:20:30;2.23;;;0.90;;
20287;SDS011;10303;51.960;8.372;2022-09-21T21:23:03;0.70;;;0.70;;
20287;SDS011;10303;51.960;8.372;2022-09-21T21:25:32;2.90;;;1.43;;
20287;SDS011;10303;51.960;8.372;2022-09-21T21:27:58;1.60;;;1.13;;
20287;SDS011;10303;51.960;8.372;2022-09-21T21:30:37;2.83;;;1.30;;
20287;SDS011;10303;51.960;8.372;2022-09-21T21:33:09;1.53;;;1.13;;
20287;SDS011;10303;51.960;8.372;2022-09-21T21:35:37;1.80;;;1.47;;
20287;SDS011;10303;51.960;8.372;2022-09-21T21:38:06;1.57;;;1.37;;
20287;SDS011;10303;51.960;8.372;2022-09-21T21:40:34;2.60;;;1.43;;
20287;SDS011;10303;51.960;8.372;2022-09-21T21:43:01;2.80;;;1.43;;
20287;SDS011;10303;51.960;8.372;2022-09-21T21:45:32;2.30;;;1.50;;
20287;SDS011;10303;51.960;8.372;2022-09-21T21:48:00;1.40;;;1.30;;
20287;SDS011;10303;51.960;8.372;2022-09-21T21:50:28;1.63;;;1.53;;
20287;SDS011;10303;51.960;8.372;2022-09-21T21:52:57;2.33;;;1.47;;
20287;SDS011;10303;51.960;8.372;2022-09-21T21:55:25;1.87;;;1.70;;
20287;SDS011;10303;51.960;8.372;2022-09-21T21:57:52;1.50;;;1.33;;
20287;SDS011;10303;51.960;8.372;2022-09-21T22:00:28;1.60;;;1.30;;
20287;SDS011;10303;51.960;8.372;2022-09-21T22:03:09;1.43;;;1.27;;
20287;SDS011;10303;51.960;8.372;2022-09-21T22:05:46;1.67;;;1.20;;
20287;SDS011;10303;51.960;8.372;2022-09-21T22:08:24;2.43;;;1.50;;
20287;SDS011;10303;51.960;8.372;2022-09-21T22:11:05;1.63;;;1.53;;
20287;SDS011;10303;51.960;8.372;2022-09-21T22:14:01;2.23;;;1.80;;
20287;SDS011;10303;51.960;8.372;2022-09-21T22:16:37;1.53;;;1.20;;
20287;SDS011;10303;51.960;8.372;2022-09-21T22:19:09;1.50;;;1.40;;
20287;SDS011;10303;51.960;8.372;2022-09-21T22:21:41;1.20;;;1.00;;
20287;SDS011;10303;51.960;8.372;2022-09-21T22:24:13;1.27;;;1.17;;
20287;SDS011;10303;51.960;8.372;2022-09-21T22:27:10;1.27;;;1.17;;
20287;SDS011;10303;51.960;8.372;2022-09-21T22:30:30;1.80;;;1.70;;
20287;SDS011;10303;51.960;8.372;2022-09-21T22:33:20;1.50;;;1.23;;
20287;SDS011;10303;51.960;8.372;2022-09-21T22:36:47;2.10;;;1.47;;
20287;SDS011;10303;51.960;8.372;2022-09-21T22:40:27;1.53;;;1.20;;
20287;SDS011;10303;51.960;8.372;2022-09-21T22:43:58;2.13;;;1.80;;
20287;SDS011;10303;51.960;8.372;2022-09-21T22:55:20;2.07;;;1.40;;
20287;SDS011;10303;51.960;8.372;2022-09-21T22:58:30;2.57;;;1.40;;
20287;SDS011;10303;51.960;8.372;2022-09-21T23:01:13;2.47;;;1.60;;
20287;SDS011;10303;51.960;8.372;2022-09-21T23:04:13;2.70;;;1.80;;
20287;SDS011;10303;51.960;8.372;2022-09-21T23:06:43;2.20;;;1.27;;
20287;SDS011;10303;51.960;8.372;2022-09-21T23:09:35;4.30;;;1.47;;